Qm Of London — ZCTD7 — position and weather

sailwx.info

Track history (hours):
 
Tides and Currents Weather Stations Pressure Air Temp Water Temp Dewpoint Dewpoint Depression Visibility Wind Speed Wind Dir Waves Ship Positions

Qm Of London

Last reported at 2016-Jul-25 20:28 UTC. Time now 2016-Jul-29 00:17 UTC.
Position N 40°45' E 014°02'.

Length 50 m; draft 2.7 m.

Type: Pleasure craft. MMSI: 319780000.

Date/timePositionNaut miles runAvg speedWind from/ knotsBaromVisibWave heightAir tempDewpointWater temp
2016-Jul-25 20:28N 40°45' E 014°02'49 1.1
2016-Jul-24 01:19N 40°55' E 012°58'0 0.0
2016-Jul-24 00:31N 40°55' E 012°58'0 0.0
2016-Jul-23 23:32N 40°55' E 012°58'0 0.0
2016-Jul-23 22:33N 40°55' E 012°58'0 0.0
2016-Jul-23 21:27N 40°55' E 012°58'0 0.0
2016-Jul-23 20:28N 40°55' E 012°58'2410.6
2016-Jul-23 18:11N 40°51' E 013°30'812.2
2016-Jul-23 17:33N 40°49' E 013°40'1212.0
2016-Jul-23 16:33N 40°46' E 013°55'5 5.2
2016-Jul-23 15:33N 40°46' E 014°02'0 0.0
2016-Jul-23 14:28N 40°46' E 014°02'0 0.0
2016-Jul-23 13:28N 40°46' E 014°02'2 2.1
2016-Jul-23 12:33N 40°46' E 014°05'8 7.5
2016-Jul-23 11:32N 40°50' E 014°14'0 0.0
2016-Jul-23 02:32N 40°50' E 014°14'0 0.0
2016-Jul-22 18:25N 40°50' E 014°14'0 0.0
2016-Jul-22 17:26N 40°50' E 014°14'0 0.0
2016-Jul-22 16:30N 40°50' E 014°14'0 0.0
2016-Jul-22 15:33N 40°50' E 014°14'0 0.0
2016-Jul-22 14:28N 40°50' E 014°14'0 0.0
2016-Jul-22 12:24N 40°50' E 014°14'7 8.3
2016-Jul-22 11:33N 40°43' E 014°14'9 7.2
2016-Jul-22 10:20N 40°34' E 014°14'0 0.0
2016-Jul-22 09:32N 40°34' E 014°14'8 7.7
2016-Jul-22 08:31N 40°39' E 014°22'1 1.2
2016-Jul-22 07:32N 40°38' E 014°23'4 4.2
2016-Jul-22 06:33N 40°37' E 014°18'11811.8
2016-Jul-21 20:33N 38°45' E 015°08'7 0.5
2016-Jul-21 06:33N 38°39' E 015°05'1 0.0
2016-Jul-20 08:07N 38°38' E 015°05'16 0.3
2016-Jul-18 10:31N 38°24' E 015°14'1314.0
2016-Jul-18 09:33N 38°21' E 015°31'9 8.9
2016-Jul-18 08:33N 38°14' E 015°38'1212.0
2016-Jul-18 07:33N 38°03' E 015°34'1413.8
2016-Jul-18 06:34N 37°50' E 015°27'  
Track history (hours):
 
Tides and Currents Weather Stations Pressure Air Temp Water Temp Dewpoint Dewpoint Depression Visibility Wind Speed Wind Dir Waves Ship Positions

Qm Of London

Last reported at 2016-Jul-25 20:28 UTC. Time now 2016-Jul-29 00:17 UTC.
Position N 40°45' E 014°02'.

Length 50 m; draft 2.7 m.

Type: Pleasure craft. MMSI: 319780000.

Date/timePositionNaut miles runAvg speedWind from/ knotsBaromVisibWave heightAir tempDewpointWater temp
2016-Jul-25 20:28N 40°45' E 014°02'49 1.1
2016-Jul-24 01:19N 40°55' E 012°58'0 0.0
2016-Jul-24 00:31N 40°55' E 012°58'0 0.0
2016-Jul-23 23:32N 40°55' E 012°58'0 0.0
2016-Jul-23 22:33N 40°55' E 012°58'0 0.0
2016-Jul-23 21:27N 40°55' E 012°58'0 0.0
2016-Jul-23 20:28N 40°55' E 012°58'2410.6
2016-Jul-23 18:11N 40°51' E 013°30'812.2
2016-Jul-23 17:33N 40°49' E 013°40'1212.0
2016-Jul-23 16:33N 40°46' E 013°55'5 5.2
2016-Jul-23 15:33N 40°46' E 014°02'0 0.0
2016-Jul-23 14:28N 40°46' E 014°02'0 0.0
2016-Jul-23 13:28N 40°46' E 014°02'2 2.1
2016-Jul-23 12:33N 40°46' E 014°05'8 7.5
2016-Jul-23 11:32N 40°50' E 014°14'0 0.0
2016-Jul-23 02:32N 40°50' E 014°14'0 0.0
2016-Jul-22 18:25N 40°50' E 014°14'0 0.0
2016-Jul-22 17:26N 40°50' E 014°14'0 0.0
2016-Jul-22 16:30N 40°50' E 014°14'0 0.0
2016-Jul-22 15:33N 40°50' E 014°14'0 0.0
2016-Jul-22 14:28N 40°50' E 014°14'0 0.0
2016-Jul-22 12:24N 40°50' E 014°14'7 8.3
2016-Jul-22 11:33N 40°43' E 014°14'9 7.2
2016-Jul-22 10:20N 40°34' E 014°14'0 0.0
2016-Jul-22 09:32N 40°34' E 014°14'8 7.7
2016-Jul-22 08:31N 40°39' E 014°22'1 1.2
2016-Jul-22 07:32N 40°38' E 014°23'4 4.2
2016-Jul-22 06:33N 40°37' E 014°18'11811.8
2016-Jul-21 20:33N 38°45' E 015°08'7 0.5
2016-Jul-21 06:33N 38°39' E 015°05'1 0.0
2016-Jul-20 08:07N 38°38' E 015°05'16 0.3
2016-Jul-18 10:31N 38°24' E 015°14'1314.0
2016-Jul-18 09:33N 38°21' E 015°31'9 8.9
2016-Jul-18 08:33N 38°14' E 015°38'1212.0
2016-Jul-18 07:33N 38°03' E 015°34'1413.8
2016-Jul-18 06:34N 37°50' E 015°27'  

Dump ship's entire track history